sensor_id;sensor_type;location;lat;lon;timestamp;P1;durP1;ratioP1;P2;durP2;ratioP2
52342;SDS011;38277;51.972;4.624;2023-04-26T00:07:42;5.7;;;2.2;;
52342;SDS011;38277;51.972;4.624;2023-04-26T00:12:02;5.4;;;2.5;;
52342;SDS011;38277;51.972;4.624;2023-04-26T00:18:05;4.8;;;2.3;;
52342;SDS011;38277;51.972;4.624;2023-04-26T00:25:25;5.7;;;2.1;;
52342;SDS011;38277;51.972;4.624;2023-04-26T00:31:27;5.9;;;2.8;;
52342;SDS011;38277;51.972;4.624;2023-04-26T00:45:00;4.7;;;2.2;;
52342;SDS011;38277;51.972;4.624;2023-04-26T00:52:16;3.4;;;2.1;;
52342;SDS011;38277;51.972;4.624;2023-04-26T01:01:19;4.9;;;2.0;;
52342;SDS011;38277;51.972;4.624;2023-04-26T01:05:50;3.6;;;2.0;;
52342;SDS011;38277;51.972;4.624;2023-04-26T01:11:53;4.9;;;2.0;;
52342;SDS011;38277;51.972;4.624;2023-04-26T01:17:55;2.6;;;1.7;;
52342;SDS011;38277;51.972;4.624;2023-04-26T01:23:57;5.8;;;2.2;;
52342;SDS011;38277;51.972;4.624;2023-04-26T01:29:59;3.7;;;2.4;;
52342;SDS011;38277;51.972;4.624;2023-04-26T01:39:02;5.2;;;2.5;;
52342;SDS011;38277;51.972;4.624;2023-04-26T01:42:03;3.9;;;2.1;;
52342;SDS011;38277;51.972;4.624;2023-04-26T01:48:05;7.4;;;2.4;;
52342;SDS011;38277;51.972;4.624;2023-04-26T01:55:17;3.9;;;2.2;;
52342;SDS011;38277;51.972;4.624;2023-04-26T02:01:20;4.3;;;2.0;;
52342;SDS011;38277;51.972;4.624;2023-04-26T02:08:48;4.0;;;2.3;;
52342;SDS011;38277;51.972;4.624;2023-04-26T02:14:51;7.8;;;2.8;;
52342;SDS011;38277;51.972;4.624;2023-04-26T02:22:20;5.5;;;2.4;;
52342;SDS011;38277;51.972;4.624;2023-04-26T02:28:22;3.6;;;2.2;;
52342;SDS011;38277;51.972;4.624;2023-04-26T02:34:25;3.5;;;2.3;;
52342;SDS011;38277;51.972;4.624;2023-04-26T02:40:38;5.0;;;2.3;;
52342;SDS011;38277;51.972;4.624;2023-04-26T02:46:41;2.7;;;2.1;;
52342;SDS011;38277;51.972;4.624;2023-04-26T02:56:55;6.2;;;2.8;;
52342;SDS011;38277;51.972;4.624;2023-04-26T02:59:58;5.8;;;3.0;;
52342;SDS011;38277;51.972;4.624;2023-04-26T03:03:01;6.4;;;2.5;;
52342;SDS011;38277;51.972;4.624;2023-04-26T03:07:38;5.6;;;2.4;;
52342;SDS011;38277;51.972;4.624;2023-04-26T03:12:02;5.3;;;3.1;;
52342;SDS011;38277;51.972;4.624;2023-04-26T03:16:27;5.3;;;2.5;;
52342;SDS011;38277;51.972;4.624;2023-04-26T03:25:25;5.4;;;2.3;;
52342;SDS011;38277;51.972;4.624;2023-04-26T03:29:53;7.3;;;2.7;;
52342;SDS011;38277;51.972;4.624;2023-04-26T03:39:01;3.1;;;2.3;;
52342;SDS011;38277;51.972;4.624;2023-04-26T03:43:40;4.0;;;2.5;;
52342;SDS011;38277;51.972;4.624;2023-04-26T03:48:08;5.5;;;2.5;;
52342;SDS011;38277;51.972;4.624;2023-04-26T03:52:34;4.5;;;2.5;;
52342;SDS011;38277;51.972;4.624;2023-04-26T04:01:24;7.9;;;2.7;;
52342;SDS011;38277;51.972;4.624;2023-04-26T04:05:48;5.5;;;2.6;;
52342;SDS011;38277;51.972;4.624;2023-04-26T04:10:37;5.0;;;2.6;;
52342;SDS011;38277;51.972;4.624;2023-04-26T04:15:04;4.0;;;2.7;;
52342;SDS011;38277;51.972;4.624;2023-04-26T04:23:54;4.1;;;2.1;;
52342;SDS011;38277;51.972;4.624;2023-04-26T04:28:22;7.3;;;3.0;;
52342;SDS011;38277;51.972;4.624;2023-04-26T04:37:42;7.1;;;3.1;;
52342;SDS011;38277;51.972;4.624;2023-04-26T04:42:02;4.0;;;3.0;;
52342;SDS011;38277;51.972;4.624;2023-04-26T04:46:22;7.1;;;3.6;;
52342;SDS011;38277;51.972;4.624;2023-04-26T04:50:58;7.9;;;4.1;;
52342;SDS011;38277;51.972;4.624;2023-04-26T04:59:47;8.2;;;3.8;;
52342;SDS011;38277;51.972;4.624;2023-04-26T05:04:39;8.5;;;4.2;;
52342;SDS011;38277;51.972;4.624;2023-04-26T05:13:41;11.6;;;5.3;;
52342;SDS011;38277;51.972;4.624;2023-04-26T05:18:05;11.4;;;5.4;;
52342;SDS011;38277;51.972;4.624;2023-04-26T05:22:23;9.1;;;4.8;;
52342;SDS011;38277;51.972;4.624;2023-04-26T05:26:45;11.9;;;4.7;;
52342;SDS011;38277;51.972;4.624;2023-04-26T05:31:27;10.0;;;5.3;;
52342;SDS011;38277;51.972;4.624;2023-04-26T05:35:56;11.6;;;6.1;;
52342;SDS011;38277;51.972;4.624;2023-04-26T05:40:24;13.4;;;5.4;;
52342;SDS011;38277;51.972;4.624;2023-04-26T05:49:33;13.2;;;6.2;;
52342;SDS011;38277;51.972;4.624;2023-04-26T05:54:13;13.9;;;5.9;;
52342;SDS011;38277;51.972;4.624;2023-04-26T05:58:15;10.6;;;5.0;;
52342;SDS011;38277;51.972;4.624;2023-04-26T06:07:32;12.0;;;5.4;;
52342;SDS011;38277;51.972;4.624;2023-04-26T06:11:47;10.0;;;4.4;;
52342;SDS011;38277;51.972;4.624;2023-04-26T06:16:15;7.4;;;3.8;;
52342;SDS011;38277;51.972;4.624;2023-04-26T06:25:19;9.0;;;4.1;;
52342;SDS011;38277;51.972;4.624;2023-04-26T06:30:09;9.1;;;4.0;;
52342;SDS011;38277;51.972;4.624;2023-04-26T06:34:40;5.9;;;2.7;;
52342;SDS011;38277;51.972;4.624;2023-04-26T06:39:14;8.5;;;2.7;;
52342;SDS011;38277;51.972;4.624;2023-04-26T06:43:37;5.7;;;2.1;;
52342;SDS011;38277;51.972;4.624;2023-04-26T06:47:53;4.4;;;1.7;;
52342;SDS011;38277;51.972;4.624;2023-04-26T06:52:40;3.6;;;1.6;;
52342;SDS011;38277;51.972;4.624;2023-04-26T07:01:22;4.6;;;2.1;;
52342;SDS011;38277;51.972;4.624;2023-04-26T07:05:56;4.4;;;1.7;;
52342;SDS011;38277;51.972;4.624;2023-04-26T07:10:30;7.4;;;1.8;;
52342;SDS011;38277;51.972;4.624;2023-04-26T07:15:11;5.0;;;1.8;;
52342;SDS011;38277;51.972;4.624;2023-04-26T07:19:28;3.9;;;1.8;;
52342;SDS011;38277;51.972;4.624;2023-04-26T07:24:05;4.6;;;1.8;;
52342;SDS011;38277;51.972;4.624;2023-04-26T07:28:28;6.6;;;2.2;;
52342;SDS011;38277;51.972;4.624;2023-04-26T07:37:28;7.5;;;2.3;;
52342;SDS011;38277;51.972;4.624;2023-04-26T07:42:11;6.4;;;2.2;;
52342;SDS011;38277;51.972;4.624;2023-04-26T07:46:44;7.5;;;2.4;;
52342;SDS011;38277;51.972;4.624;2023-04-26T07:55:28;5.1;;;1.7;;
52342;SDS011;38277;51.972;4.624;2023-04-26T08:00:04;6.1;;;2.3;;
52342;SDS011;38277;51.972;4.624;2023-04-26T08:04:29;6.0;;;3.2;;
52342;SDS011;38277;51.972;4.624;2023-04-26T08:13:38;5.2;;;1.9;;
52342;SDS011;38277;51.972;4.624;2023-04-26T08:17:55;5.4;;;1.8;;
52342;SDS011;38277;51.972;4.624;2023-04-26T08:22:38;3.3;;;1.5;;
52342;SDS011;38277;51.972;4.624;2023-04-26T08:27:06;3.8;;;1.2;;
52342;SDS011;38277;51.972;4.624;2023-04-26T08:31:45;3.2;;;1.4;;
52342;SDS011;38277;51.972;4.624;2023-04-26T08:36:13;1.9;;;1.2;;
52342;SDS011;38277;51.972;4.624;2023-04-26T08:40:32;3.8;;;1.1;;
52342;SDS011;38277;51.972;4.624;2023-04-26T08:49:26;3.4;;;1.2;;
52342;SDS011;38277;51.972;4.624;2023-04-26T08:54:00;3.4;;;1.3;;
52342;SDS011;38277;51.972;4.624;2023-04-26T08:58:18;4.2;;;1.3;;
52342;SDS011;38277;51.972;4.624;2023-04-26T09:02:53;2.7;;;1.1;;
52342;SDS011;38277;51.972;4.624;2023-04-26T09:07:34;2.4;;;1.2;;
52342;SDS011;38277;51.972;4.624;2023-04-26T09:11:54;5.1;;;1.1;;
52342;SDS011;38277;51.972;4.624;2023-04-26T09:16:33;3.8;;;1.4;;
52342;SDS011;38277;51.972;4.624;2023-04-26T09:25:32;2.8;;;1.5;;
52342;SDS011;38277;51.972;4.624;2023-04-26T09:30:14;4.1;;;1.6;;
52342;SDS011;38277;51.972;4.624;2023-04-26T09:34:44;2.9;;;1.5;;
52342;SDS011;38277;51.972;4.624;2023-04-26T09:39:08;2.6;;;1.1;;
52342;SDS011;38277;51.972;4.624;2023-04-26T09:43:16;2.0;;;1.3;;
52342;SDS011;38277;51.972;4.624;2023-04-26T09:47:50;4.7;;;2.3;;
52342;SDS011;38277;51.972;4.624;2023-04-26T09:52:19;3.0;;;1.3;;
52342;SDS011;38277;51.972;4.624;2023-04-26T10:01:20;1.7;;;1.1;;
52342;SDS011;38277;51.972;4.624;2023-04-26T10:06:14;3.7;;;1.3;;
52342;SDS011;38277;51.972;4.624;2023-04-26T10:10:28;2.2;;;1.2;;
52342;SDS011;38277;51.972;4.624;2023-04-26T10:14:54;4.2;;;1.6;;
52342;SDS011;38277;51.972;4.624;2023-04-26T10:19:30;3.5;;;1.6;;
52342;SDS011;38277;51.972;4.624;2023-04-26T10:23:46;4.2;;;1.6;;
52342;SDS011;38277;51.972;4.624;2023-04-26T10:28:54;3.9;;;1.0;;
52342;SDS011;38277;51.972;4.624;2023-04-26T10:37:32;3.8;;;1.4;;
52342;SDS011;38277;51.972;4.624;2023-04-26T10:42:29;2.4;;;1.2;;
52342;SDS011;38277;51.972;4.624;2023-04-26T10:46:36;2.1;;;1.2;;
52342;SDS011;38277;51.972;4.624;2023-04-26T10:51:07;4.9;;;1.5;;
52342;SDS011;38277;51.972;4.624;2023-04-26T10:55:44;3.5;;;1.3;;
52342;SDS011;38277;51.972;4.624;2023-04-26T11:00:25;3.6;;;1.3;;
52342;SDS011;38277;51.972;4.624;2023-04-26T11:08:49;2.7;;;1.3;;
52342;SDS011;38277;51.972;4.624;2023-04-26T11:13:33;4.0;;;1.2;;
52342;SDS011;38277;51.972;4.624;2023-04-26T11:18:03;3.3;;;1.1;;
52342;SDS011;38277;51.972;4.624;2023-04-26T11:22:27;2.6;;;1.3;;
52342;SDS011;38277;51.972;4.624;2023-04-26T11:31:25;3.2;;;1.1;;
52342;SDS011;38277;51.972;4.624;2023-04-26T11:35:55;2.6;;;1.2;;
52342;SDS011;38277;51.972;4.624;2023-04-26T11:45:05;4.3;;;1.2;;
52342;SDS011;38277;51.972;4.624;2023-04-26T11:49:33;2.6;;;1.6;;
52342;SDS011;38277;51.972;4.624;2023-04-26T11:53:53;4.9;;;1.2;;
52342;SDS011;38277;51.972;4.624;2023-04-26T11:58:38;3.1;;;1.3;;
52342;SDS011;38277;51.972;4.624;2023-04-26T12:02:54;4.1;;;1.6;;
52342;SDS011;38277;51.972;4.624;2023-04-26T12:07:17;4.6;;;1.2;;
52342;SDS011;38277;51.972;4.624;2023-04-26T12:12:04;3.5;;;1.4;;
52342;SDS011;38277;51.972;4.624;2023-04-26T12:20:47;4.1;;;1.6;;
52342;SDS011;38277;51.972;4.624;2023-04-26T12:25:38;3.3;;;1.4;;
52342;SDS011;38277;51.972;4.624;2023-04-26T12:29:53;7.9;;;1.6;;
52342;SDS011;38277;51.972;4.624;2023-04-26T12:34:20;2.6;;;1.2;;
52342;SDS011;38277;51.972;4.624;2023-04-26T12:39:14;3.0;;;1.4;;
52342;SDS011;38277;51.972;4.624;2023-04-26T12:43:38;3.5;;;1.8;;
52342;SDS011;38277;51.972;4.624;2023-04-26T12:48:01;5.6;;;1.2;;
52342;SDS011;38277;51.972;4.624;2023-04-26T12:57:04;2.6;;;1.2;;
52342;SDS011;38277;51.972;4.624;2023-04-26T13:01:26;2.8;;;1.4;;
52342;SDS011;38277;51.972;4.624;2023-04-26T13:05:54;2.1;;;1.4;;
52342;SDS011;38277;51.972;4.624;2023-04-26T13:14:59;2.8;;;1.3;;
52342;SDS011;38277;51.972;4.624;2023-04-26T13:19:20;2.6;;;1.2;;
52342;SDS011;38277;51.972;4.624;2023-04-26T13:32:51;4.8;;;1.7;;
52342;SDS011;38277;51.972;4.624;2023-04-26T13:37:24;4.0;;;1.6;;
52342;SDS011;38277;51.972;4.624;2023-04-26T13:42:01;2.7;;;1.3;;
52342;SDS011;38277;51.972;4.624;2023-04-26T13:46:34;3.8;;;1.8;;
52342;SDS011;38277;51.972;4.624;2023-04-26T13:50:57;3.3;;;1.7;;
52342;SDS011;38277;51.972;4.624;2023-04-26T13:55:32;3.4;;;1.4;;
52342;SDS011;38277;51.972;4.624;2023-04-26T13:59:47;4.5;;;1.5;;
52342;SDS011;38277;51.972;4.624;2023-04-26T14:09:02;2.9;;;1.4;;
52342;SDS011;38277;51.972;4.624;2023-04-26T14:18:14;3.1;;;1.4;;
52342;SDS011;38277;51.972;4.624;2023-04-26T14:22:41;3.7;;;1.4;;
52342;SDS011;38277;51.972;4.624;2023-04-26T14:26:53;3.8;;;1.6;;
52342;SDS011;38277;51.972;4.624;2023-04-26T14:31:18;2.8;;;1.4;;
52342;SDS011;38277;51.972;4.624;2023-04-26T14:35:56;3.8;;;1.4;;
52342;SDS011;38277;51.972;4.624;2023-04-26T14:45:01;3.7;;;1.3;;
52342;SDS011;38277;51.972;4.624;2023-04-26T14:49:42;5.2;;;1.7;;
52342;SDS011;38277;51.972;4.624;2023-04-26T14:53:48;4.3;;;1.6;;
52342;SDS011;38277;51.972;4.624;2023-04-26T14:58:19;4.5;;;1.3;;
52342;SDS011;38277;51.972;4.624;2023-04-26T15:02:55;4.1;;;1.6;;
52342;SDS011;38277;51.972;4.624;2023-04-26T15:07:15;3.6;;;1.5;;
52342;SDS011;38277;51.972;4.624;2023-04-26T15:11:48;5.3;;;1.4;;
52342;SDS011;38277;51.972;4.624;2023-04-26T15:21:06;3.5;;;1.5;;
52342;SDS011;38277;51.972;4.624;2023-04-26T15:25:22;4.1;;;1.5;;
52342;SDS011;38277;51.972;4.624;2023-04-26T15:29:48;3.6;;;1.4;;
52342;SDS011;38277;51.972;4.624;2023-04-26T15:34:37;4.3;;;1.9;;
52342;SDS011;38277;51.972;4.624;2023-04-26T15:38:46;4.1;;;1.4;;
52342;SDS011;38277;51.972;4.624;2023-04-26T15:43:30;3.0;;;1.4;;
52342;SDS011;38277;51.972;4.624;2023-04-26T15:47:47;4.2;;;1.4;;
52342;SDS011;38277;51.972;4.624;2023-04-26T15:56:46;3.1;;;1.3;;
52342;SDS011;38277;51.972;4.624;2023-04-26T16:01:40;2.8;;;1.1;;
52342;SDS011;38277;51.972;4.624;2023-04-26T16:05:50;2.8;;;1.5;;
52342;SDS011;38277;51.972;4.624;2023-04-26T16:10:35;3.5;;;1.4;;
52342;SDS011;38277;51.972;4.624;2023-04-26T16:15:02;5.5;;;1.9;;
52342;SDS011;38277;51.972;4.624;2023-04-26T16:19:36;5.1;;;1.5;;
52342;SDS011;38277;51.972;4.624;2023-04-26T16:23:55;8.7;;;2.0;;
52342;SDS011;38277;51.972;4.624;2023-04-26T16:32:46;2.4;;;1.4;;
52342;SDS011;38277;51.972;4.624;2023-04-26T16:37:21;3.8;;;1.6;;
52342;SDS011;38277;51.972;4.624;2023-04-26T16:41:59;2.6;;;1.3;;
52342;SDS011;38277;51.972;4.624;2023-04-26T16:46:42;3.0;;;1.3;;
52342;SDS011;38277;51.972;4.624;2023-04-26T16:51:05;5.1;;;1.9;;
52342;SDS011;38277;51.972;4.624;2023-04-26T16:55:44;3.1;;;1.3;;
52342;SDS011;38277;51.972;4.624;2023-04-26T17:00:01;2.7;;;1.2;;
52342;SDS011;38277;51.972;4.624;2023-04-26T17:08:48;4.5;;;1.7;;
52342;SDS011;38277;51.972;4.624;2023-04-26T17:13:24;4.3;;;1.5;;
52342;SDS011;38277;51.972;4.624;2023-04-26T17:17:47;7.8;;;1.9;;
52342;SDS011;38277;51.972;4.624;2023-04-26T17:22:20;3.8;;;1.7;;
52342;SDS011;38277;51.972;4.624;2023-04-26T17:27:14;4.8;;;2.0;;
52342;SDS011;38277;51.972;4.624;2023-04-26T17:31:37;5.0;;;1.7;;
52342;SDS011;38277;51.972;4.624;2023-04-26T17:36:03;4.2;;;1.8;;
52342;SDS011;38277;51.972;4.624;2023-04-26T17:44:57;3.1;;;2.3;;
52342;SDS011;38277;51.972;4.624;2023-04-26T17:49:32;2.6;;;1.7;;
52342;SDS011;38277;51.972;4.624;2023-04-26T17:58:38;4.1;;;1.9;;
52342;SDS011;38277;51.972;4.624;2023-04-26T18:07:34;4.4;;;2.0;;
52342;SDS011;38277;51.972;4.624;2023-04-26T18:12:09;5.6;;;2.1;;
52342;SDS011;38277;51.972;4.624;2023-04-26T18:21:08;6.3;;;2.2;;
52342;SDS011;38277;51.972;4.624;2023-04-26T18:25:34;5.4;;;2.1;;
52342;SDS011;38277;51.972;4.624;2023-04-26T18:30:00;5.3;;;1.8;;
52342;SDS011;38277;51.972;4.624;2023-04-26T18:34:22;2.8;;;1.8;;
52342;SDS011;38277;51.972;4.624;2023-04-26T18:40:26;3.9;;;2.0;;
52342;SDS011;38277;51.972;4.624;2023-04-26T18:43:44;4.1;;;2.0;;
52342;SDS011;38277;51.972;4.624;2023-04-26T18:47:57;2.6;;;1.6;;
52342;SDS011;38277;51.972;4.624;2023-04-26T18:52:29;3.2;;;1.6;;
52342;SDS011;38277;51.972;4.624;2023-04-26T18:58:39;5.8;;;2.2;;
52342;SDS011;38277;51.972;4.624;2023-04-26T19:01:35;4.2;;;2.5;;
52342;SDS011;38277;51.972;4.624;2023-04-26T19:07:50;4.2;;;2.2;;
52342;SDS011;38277;51.972;4.624;2023-04-26T19:10:19;3.5;;;2.0;;
52342;SDS011;38277;51.972;4.624;2023-04-26T19:16:29;4.8;;;2.0;;
52342;SDS011;38277;51.972;4.624;2023-04-26T19:19:34;3.6;;;2.1;;
52342;SDS011;38277;51.972;4.624;2023-04-26T19:23:52;3.3;;;2.1;;
52342;SDS011;38277;51.972;4.624;2023-04-26T19:28:31;4.1;;;2.2;;
52342;SDS011;38277;51.972;4.624;2023-04-26T19:34:29;4.2;;;1.9;;
52342;SDS011;38277;51.972;4.624;2023-04-26T19:37:34;3.9;;;2.0;;
52342;SDS011;38277;51.972;4.624;2023-04-26T19:41:51;3.7;;;1.9;;
52342;SDS011;38277;51.972;4.624;2023-04-26T19:46:42;4.5;;;2.0;;
52342;SDS011;38277;51.972;4.624;2023-04-26T19:52:51;5.0;;;2.0;;
52342;SDS011;38277;51.972;4.624;2023-04-26T19:55:36;7.4;;;2.7;;
52342;SDS011;38277;51.972;4.624;2023-04-26T20:00:03;5.2;;;2.4;;
52342;SDS011;38277;51.972;4.624;2023-04-26T20:04:31;4.1;;;2.4;;
52342;SDS011;38277;51.972;4.624;2023-04-26T20:10:48;4.2;;;2.2;;
52342;SDS011;38277;51.972;4.624;2023-04-26T20:13:20;5.3;;;2.3;;
52342;SDS011;38277;51.972;4.624;2023-04-26T20:17:45;5.7;;;2.3;;
52342;SDS011;38277;51.972;4.624;2023-04-26T20:22:29;3.8;;;2.4;;
52342;SDS011;38277;51.972;4.624;2023-04-26T20:28:41;4.5;;;2.4;;
52342;SDS011;38277;51.972;4.624;2023-04-26T20:31:30;4.4;;;2.6;;
52342;SDS011;38277;51.972;4.624;2023-04-26T20:36:08;7.8;;;2.7;;
52342;SDS011;38277;51.972;4.624;2023-04-26T20:40:15;4.1;;;2.0;;
52342;SDS011;38277;51.972;4.624;2023-04-26T20:46:26;6.3;;;3.0;;
52342;SDS011;38277;51.972;4.624;2023-04-26T20:49:24;6.1;;;3.5;;
52342;SDS011;38277;51.972;4.624;2023-04-26T20:54:00;5.9;;;3.3;;
52342;SDS011;38277;51.972;4.624;2023-04-26T20:58:23;5.4;;;3.4;;
52342;SDS011;38277;51.972;4.624;2023-04-26T21:04:47;6.5;;;2.9;;
52342;SDS011;38277;51.972;4.624;2023-04-26T21:07:40;5.5;;;3.2;;
52342;SDS011;38277;51.972;4.624;2023-04-26T21:13:47;5.4;;;2.8;;
52342;SDS011;38277;51.972;4.624;2023-04-26T21:16:26;4.4;;;2.7;;
52342;SDS011;38277;51.972;4.624;2023-04-26T21:22:37;4.1;;;2.9;;
52342;SDS011;38277;51.972;4.624;2023-04-26T21:25:26;4.0;;;2.4;;
52342;SDS011;38277;51.972;4.624;2023-04-26T21:30:00;6.7;;;3.1;;
52342;SDS011;38277;51.972;4.624;2023-04-26T21:34:18;5.1;;;3.1;;
52342;SDS011;38277;51.972;4.624;2023-04-26T21:40:43;7.5;;;3.3;;
52342;SDS011;38277;51.972;4.624;2023-04-26T21:43:16;9.2;;;3.9;;
52342;SDS011;38277;51.972;4.624;2023-04-26T21:47:52;5.9;;;3.3;;
52342;SDS011;38277;51.972;4.624;2023-04-26T21:52:17;5.0;;;3.1;;
52342;SDS011;38277;51.972;4.624;2023-04-26T21:58:46;5.5;;;3.1;;
52342;SDS011;38277;51.972;4.624;2023-04-26T22:01:43;6.2;;;3.4;;
52342;SDS011;38277;51.972;4.624;2023-04-26T22:05:52;5.8;;;3.2;;
52342;SDS011;38277;51.972;4.624;2023-04-26T22:10:27;8.9;;;4.6;;
52342;SDS011;38277;51.972;4.624;2023-04-26T22:16:30;9.0;;;4.7;;
52342;SDS011;38277;51.972;4.624;2023-04-26T22:19:42;8.3;;;4.5;;
52342;SDS011;38277;51.972;4.624;2023-04-26T22:24:03;6.9;;;3.9;;
52342;SDS011;38277;51.972;4.624;2023-04-26T22:28:41;7.4;;;4.1;;
52342;SDS011;38277;51.972;4.624;2023-04-26T22:34:36;7.4;;;4.3;;
52342;SDS011;38277;51.972;4.624;2023-04-26T22:37:20;8.3;;;4.7;;
52342;SDS011;38277;51.972;4.624;2023-04-26T22:41:57;8.3;;;4.8;;
52342;SDS011;38277;51.972;4.624;2023-04-26T22:46:17;8.1;;;4.4;;
52342;SDS011;38277;51.972;4.624;2023-04-26T22:52:27;11.2;;;4.7;;
52342;SDS011;38277;51.972;4.624;2023-04-26T22:55:30;8.4;;;5.1;;
52342;SDS011;38277;51.972;4.624;2023-04-26T23:00:07;11.4;;;4.8;;
52342;SDS011;38277;51.972;4.624;2023-04-26T23:04:32;8.6;;;5.1;;
52342;SDS011;38277;51.972;4.624;2023-04-26T23:10:33;8.2;;;4.8;;
52342;SDS011;38277;51.972;4.624;2023-04-26T23:13:22;9.4;;;4.7;;
52342;SDS011;38277;51.972;4.624;2023-04-26T23:18:06;8.5;;;4.6;;
52342;SDS011;38277;51.972;4.624;2023-04-26T23:22:42;10.1;;;5.0;;
52342;SDS011;38277;51.972;4.624;2023-04-26T23:28:39;8.2;;;4.8;;
52342;SDS011;38277;51.972;4.624;2023-04-26T23:31:40;9.4;;;5.1;;
52342;SDS011;38277;51.972;4.624;2023-04-26T23:41:57;9.9;;;4.9;;
52342;SDS011;38277;51.972;4.624;2023-04-26T23:46:46;8.9;;;4.9;;
52342;SDS011;38277;51.972;4.624;2023-04-26T23:49:23;9.3;;;5.0;;
52342;SDS011;38277;51.972;4.624;2023-04-26T23:53:52;9.2;;;4.8;;
52342;SDS011;38277;51.972;4.624;2023-04-26T23:58:15;8.8;;;4.6;;
